Time;durP1;ratioP1;P1;durP2;ratioP2;P2;SDS_P1;SDS_P2;PMS_P1;PMS_P2;Temp;Humidity;BMP_temperature;BMP_pressure;BME280_temperature;BME280_humidity;BME280_pressure;Samples;Min_cycle;Max_cycle;Signal;HPM_P1;HPM_P2
2021/12/11 00:00:10;;;;;;;3.10;2.13;;;19.50;45.00;;;;;;4977732;28;20588;-25
2021/12/11 00:02:35;;;;;;;2.50;2.10;;;19.50;45.00;;;;;;4961583;28;20241;-24
2021/12/11 00:05:01;;;;;;;2.53;2.10;;;19.40;45.10;;;;;;4961760;28;20234;-23
2021/12/11 00:07:30;;;;;;;2.13;1.83;;;19.40;45.10;;;;;;4959591;28;20199;-23
2021/12/11 00:10:09;;;;;;;2.67;1.80;;;19.40;45.10;;;;;;4960846;28;20198;-21
2021/12/11 00:12:44;;;;;;;3.73;2.17;;;19.30;45.10;;;;;;4976367;28;20427;-24
2021/12/11 00:15:22;;;;;;;2.53;2.17;;;19.30;45.20;;;;;;4976631;28;20386;-23
2021/12/11 00:17:47;;;;;;;2.77;2.00;;;19.30;45.20;;;;;;4960686;28;20183;-25
2021/12/11 00:20:26;;;;;;;2.67;2.13;;;19.30;45.20;;;;;;4976743;28;20213;-24
2021/12/11 00:22:53;;;;;;;1.97;1.70;;;19.20;45.20;;;;;;4978430;28;20550;-24
2021/12/11 00:25:19;;;;;;;2.87;1.70;;;19.20;45.20;;;;;;4978150;28;20591;-23
2021/12/11 00:27:48;;;;;;;2.20;1.90;;;19.20;45.20;;;;;;4976833;28;20476;-23
2021/12/11 00:30:29;;;;;;;2.20;1.90;;;19.10;45.20;;;;;;4960276;28;20596;-22
2021/12/11 00:33:17;;;;;;;2.40;2.10;;;19.10;45.30;;;;;;4976943;28;20229;-23
2021/12/11 00:35:44;;;;;;;2.37;1.93;;;19.10;45.30;;;;;;4971317;28;20198;-21
2021/12/11 00:38:17;;;;;;;2.40;2.20;;;19.10;45.30;;;;;;4960825;28;20533;-24
2021/12/11 00:40:46;;;;;;;2.70;2.00;;;19.10;45.30;;;;;;4959653;28;20576;-21
2021/12/11 00:43:17;;;;;;;1.90;1.70;;;19.10;45.30;;;;;;4977269;28;20537;-26
2021/12/11 00:45:44;;;;;;;2.47;1.87;;;19.00;45.30;;;;;;4976163;28;20604;-22
2021/12/11 00:48:17;;;;;;;3.63;2.13;;;19.00;45.30;;;;;;4960037;28;20203;-24
2021/12/11 00:51:18;;;;;;;2.30;2.00;;;19.00;45.30;;;;;;4976047;28;20275;-24
2021/12/11 00:53:53;;;;;;;2.93;1.90;;;19.00;45.30;;;;;;4955876;28;20204;-22
2021/12/11 00:56:35;;;;;;;2.23;1.97;;;19.00;45.30;;;;;;4960344;28;20520;-23
2021/12/11 00:59:06;;;;;;;2.90;1.90;;;18.90;45.30;;;;;;4978096;28;20264;-26
2021/12/11 01:01:55;;;;;;;2.27;1.90;;;18.90;45.30;;;;;;4960324;28;20497;-24
2021/12/11 01:04:24;;;;;;;2.63;1.80;;;18.80;45.30;;;;;;4977422;28;20195;-27
2021/12/11 01:07:17;;;;;;;2.20;1.77;;;18.80;45.40;;;;;;4976780;28;20206;-24
2021/12/11 01:09:51;;;;;;;2.40;2.07;;;18.70;45.40;;;;;;4959413;28;20232;-24
2021/12/11 01:12:49;;;;;;;2.43;2.00;;;18.70;45.50;;;;;;4975990;28;20659;-23
2021/12/11 01:15:27;;;;;;;2.27;1.97;;;18.60;45.50;;;;;;4976465;28;20206;-23
2021/12/11 01:18:10;;;;;;;1.87;1.77;;;18.50;45.60;;;;;;4974917;28;20208;-24
2021/12/11 01:20:46;;;;;;;2.13;1.80;;;18.50;45.70;;;;;;4976799;28;20264;-25
2021/12/11 01:24:07;;;;;;;3.20;2.10;;;18.50;45.70;;;;;;4976000;28;20228;-22
2021/12/11 01:26:05;;;;;;;1.83;1.73;;;18.40;45.80;;;;;;4966015;28;20225;-24
2021/12/11 01:28:31;;;;;;;2.53;2.03;;;18.40;45.80;;;;;;4976938;28;20275;-25
2021/12/11 01:30:59;;;;;;;2.33;1.90;;;18.30;45.80;;;;;;4959355;28;20437;-24
2021/12/11 01:33:25;;;;;;;4.03;2.10;;;18.30;45.90;;;;;;4959402;28;20329;-24
2021/12/11 01:35:51;;;;;;;2.70;2.10;;;18.20;45.90;;;;;;4976124;28;20206;-25
2021/12/11 01:38:21;;;;;;;2.20;2.00;;;18.20;46.00;;;;;;4959076;28;20215;-26
2021/12/11 01:40:50;;;;;;;3.20;2.07;;;18.10;46.40;;;;;;4959981;28;20212;-25
2021/12/11 01:43:17;;;;;;;2.17;1.90;;;18.00;46.00;;;;;;4959643;28;20186;-25
2021/12/11 01:45:49;;;;;;;2.17;1.97;;;18.00;46.10;;;;;;4976582;28;20198;-24
2021/12/11 01:48:29;;;;;;;2.43;2.00;;;18.00;46.20;;;;;;4976252;28;20253;-24
2021/12/11 01:51:04;;;;;;;2.53;1.93;;;17.90;46.20;;;;;;4975151;28;20216;-26
2021/12/11 01:53:36;;;;;;;2.10;1.83;;;18.00;46.20;;;;;;4975539;28;20633;-23
2021/12/11 01:56:33;;;;;;;2.20;2.00;;;18.20;46.00;;;;;;4975045;28;20664;-24
2021/12/11 01:59:11;;;;;;;2.23;1.90;;;18.40;45.70;;;;;;4955716;28;20200;-23
2021/12/11 02:01:47;;;;;;;2.10;1.83;;;18.40;45.60;;;;;;4959565;28;20206;-24
2021/12/11 02:04:15;;;;;;;2.80;1.83;;;18.30;45.60;;;;;;4976253;28;20288;-25
2021/12/11 02:06:43;;;;;;;3.10;2.00;;;18.40;45.60;;;;;;4958001;28;20661;-24
2021/12/11 02:09:18;;;;;;;2.20;2.00;;;18.30;45.50;;;;;;4976660;28;20202;-25
2021/12/11 02:11:47;;;;;;;2.00;1.80;;;18.30;45.50;;;;;;4975403;28;20315;-23
2021/12/11 02:14:16;;;;;;;2.80;2.10;;;18.20;45.50;;;;;;4976238;28;20286;-23
2021/12/11 02:16:47;;;;;;;2.50;1.97;;;18.20;45.60;;;;;;4975989;28;20209;-25
2021/12/11 02:19:20;;;;;;;2.77;1.80;;;18.20;45.70;;;;;;4975503;28;20243;-24
2021/12/11 02:22:01;;;;;;;2.50;1.77;;;18.10;45.70;;;;;;4975282;28;20448;-25
2021/12/11 02:24:34;;;;;;;2.10;1.90;;;18.10;45.70;;;;;;4975159;28;20195;-24
2021/12/11 02:27:00;;;;;;;2.37;1.97;;;18.00;45.70;;;;;;4976057;28;20194;-24
2021/12/11 02:29:34;;;;;;;3.33;1.97;;;18.00;45.70;;;;;;4976293;28;20190;-26
2021/12/11 02:32:08;;;;;;;3.20;1.83;;;17.90;45.80;;;;;;4958997;28;20227;-25
2021/12/11 02:34:38;;;;;;;3.53;2.27;;;17.90;45.90;;;;;;4976161;28;20197;-25
2021/12/11 02:37:33;;;;;;;2.10;1.90;;;17.80;45.90;;;;;;4975938;28;20598;-24
2021/12/11 02:40:06;;;;;;;2.47;1.90;;;17.80;46.00;;;;;;4940524;28;20589;-21
2021/12/11 02:42:38;;;;;;;3.23;1.83;;;17.80;46.00;;;;;;4974553;28;20202;-25
2021/12/11 02:45:22;;;;;;;2.60;2.00;;;17.70;46.10;;;;;;4975998;28;20196;-23
2021/12/11 02:48:12;;;;;;;1.87;1.60;;;17.70;46.10;;;;;;4975316;28;20191;-23
2021/12/11 02:50:46;;;;;;;2.00;1.80;;;17.90;45.90;;;;;;4974545;28;20491;-24
2021/12/11 02:53:21;;;;;;;2.70;1.93;;;18.10;45.60;;;;;;4975216;28;20219;-27
2021/12/11 02:55:52;;;;;;;2.73;1.90;;;18.20;45.50;;;;;;4975441;28;20209;-24
2021/12/11 02:58:26;;;;;;;2.57;1.93;;;18.20;45.30;;;;;;4957859;28;20229;-24
2021/12/11 03:01:00;;;;;;;2.30;2.00;;;18.20;45.30;;;;;;4974495;28;20299;-23
2021/12/11 03:03:32;;;;;;;2.70;1.90;;;18.10;45.30;;;;;;4974717;28;20568;-24
2021/12/11 03:06:08;;;;;;;4.23;2.40;;;18.10;45.30;;;;;;4958198;28;20619;-25
2021/12/11 03:08:35;;;;;;;2.10;1.90;;;18.10;45.30;;;;;;4957905;28;20207;-24
2021/12/11 03:11:05;;;;;;;1.90;1.67;;;18.00;45.30;;;;;;4975703;28;20182;-24
2021/12/11 03:13:34;;;;;;;2.33;2.13;;;17.90;45.40;;;;;;4958231;28;20290;-21
2021/12/11 03:16:03;;;;;;;2.80;2.10;;;17.90;45.40;;;;;;4976022;28;20208;-25
2021/12/11 03:18:29;;;;;;;2.70;1.80;;;17.80;45.50;;;;;;4977970;28;20200;-27
2021/12/11 03:20:55;;;;;;;2.27;1.80;;;17.80;45.50;;;;;;4961996;28;20637;-23
2021/12/11 03:23:21;;;;;;;2.33;1.90;;;17.80;45.60;;;;;;4978494;28;20223;-24
2021/12/11 03:25:47;;;;;;;2.77;1.97;;;17.70;45.60;;;;;;4978803;28;20273;-27
2021/12/11 03:28:15;;;;;;;1.97;1.67;;;17.70;45.60;;;;;;4978390;28;20611;-25
2021/12/11 03:30:44;;;;;;;2.63;2.20;;;17.70;45.70;;;;;;4978126;28;20208;-22
2021/12/11 03:33:15;;;;;;;3.30;2.00;;;17.60;45.70;;;;;;4962430;28;20219;-23
2021/12/11 03:35:42;;;;;;;2.00;1.80;;;17.60;45.70;;;;;;4979168;28;20607;-24
2021/12/11 03:38:10;;;;;;;2.73;1.70;;;17.60;45.80;;;;;;4979529;28;20207;-23
2021/12/11 03:40:36;;;;;;;2.23;1.80;;;17.70;45.70;;;;;;4962116;28;20226;-41
2021/12/11 03:43:06;;;;;;;2.53;2.00;;;17.90;45.50;;;;;;4979295;28;20216;-24
2021/12/11 03:45:34;;;;;;;2.70;2.00;;;18.00;45.30;;;;;;4978317;28;20196;-24
2021/12/11 03:48:06;;;;;;;2.60;2.00;;;18.10;45.10;;;;;;4978881;28;20204;-24
2021/12/11 03:50:32;;;;;;;2.30;1.87;;;18.00;45.10;;;;;;4979220;28;20566;-24
2021/12/11 03:52:58;;;;;;;2.47;1.80;;;18.00;45.00;;;;;;4978453;28;20230;-26
2021/12/11 03:55:29;;;;;;;2.10;1.90;;;18.00;45.00;;;;;;4961488;28;20211;-24
2021/12/11 03:57:59;;;;;;;2.60;1.80;;;17.90;45.10;;;;;;4978663;28;20197;-25
2021/12/11 04:00:31;;;;;;;3.27;2.00;;;17.90;45.10;;;;;;4978313;28;20237;-21
2021/12/11 04:03:03;;;;;;;3.07;1.97;;;17.80;45.10;;;;;;4977516;28;20200;-23
2021/12/11 04:05:30;;;;;;;3.63;2.00;;;17.80;45.20;;;;;;4979013;28;20191;-20
2021/12/11 04:07:57;;;;;;;2.70;2.30;;;17.70;45.20;;;;;;4960911;28;20241;-25
2021/12/11 04:10:27;;;;;;;2.53;1.90;;;17.70;45.30;;;;;;4961351;28;20215;-25
2021/12/11 04:13:04;;;;;;;2.97;2.10;;;17.60;45.30;;;;;;4977749;28;20232;-25
2021/12/11 04:15:30;;;;;;;2.73;2.10;;;17.60;45.40;;;;;;4961726;28;20298;-25
2021/12/11 04:17:57;;;;;;;2.83;1.90;;;17.60;45.40;;;;;;4978431;28;20292;-23
2021/12/11 04:20:26;;;;;;;3.17;2.23;;;17.50;45.50;;;;;;4977368;28;20201;-25
2021/12/11 04:22:51;;;;;;;2.50;2.20;;;17.50;45.60;;;;;;4977688;28;20231;-27
2021/12/11 04:25:20;;;;;;;3.53;2.17;;;17.40;45.50;;;;;;4960787;28;20585;-22
2021/12/11 04:27:47;;;;;;;3.10;2.10;;;17.50;45.60;;;;;;4977886;28;20406;-25
2021/12/11 04:30:16;;;;;;;2.50;1.93;;;17.60;45.50;;;;;;4976888;28;20293;-25
2021/12/11 04:32:42;;;;;;;2.73;2.20;;;17.80;45.30;;;;;;4977245;28;20241;-26
2021/12/11 04:35:10;;;;;;;2.20;1.90;;;17.90;45.10;;;;;;4977685;28;20198;-24
2021/12/11 04:37:36;;;;;;;2.60;2.30;;;17.90;45.00;;;;;;4976819;28;20227;-25
2021/12/11 04:40:10;;;;;;;3.73;2.23;;;17.90;44.90;;;;;;4971462;28;20467;-23
2021/12/11 04:42:52;;;;;;;3.00;2.57;;;17.90;44.90;;;;;;4997463;28;20200;-25
2021/12/11 04:45:31;;;;;;;2.50;1.97;;;17.80;44.90;;;;;;4980919;28;20282;-24
2021/12/11 04:48:05;;;;;;;2.47;2.10;;;17.80;45.00;;;;;;4997433;28;20186;-28
2021/12/11 04:50:48;;;;;;;3.57;2.10;;;17.70;45.00;;;;;;4997062;28;20206;-26
2021/12/11 04:53:35;;;;;;;2.27;2.00;;;17.70;45.00;;;;;;4997441;28;20222;-25
2021/12/11 05:01:31;;;;;;;3.40;2.53;;;17.50;45.10;;;;;;4997016;28;20211;-23
2021/12/11 05:11:55;;;;;;;3.17;2.50;;;17.20;45.40;;;;;;4996154;28;20524;-23
2021/12/11 05:14:24;;;;;;;2.60;2.10;;;17.10;45.50;;;;;;4979959;28;20630;-26
2021/12/11 05:16:50;;;;;;;4.23;2.70;;;17.00;45.70;;;;;;4980264;28;20210;-26
2021/12/11 05:19:16;;;;;;;2.80;2.40;;;17.00;45.80;;;;;;4979331;28;20313;-24
2021/12/11 05:21:42;;;;;;;4.30;2.63;;;16.90;45.90;;;;;;4996021;28;20197;-24
2021/12/11 05:24:09;;;;;;;3.50;2.53;;;16.90;45.90;;;;;;4979008;28;20229;-24
2021/12/11 05:26:36;;;;;;;4.27;2.67;;;16.80;46.00;;;;;;4978971;28;20214;-23
2021/12/11 05:29:04;;;;;;;3.83;2.43;;;16.70;46.10;;;;;;4978928;28;20220;-24
2021/12/11 05:31:29;;;;;;;3.13;2.40;;;16.70;46.10;;;;;;4995954;28;20229;-25
2021/12/11 05:33:55;;;;;;;3.40;2.67;;;16.60;46.20;;;;;;4996186;28;20241;-24
2021/12/11 05:36:23;;;;;;;3.63;2.67;;;16.60;46.20;;;;;;4996678;28;20623;-23
2021/12/11 05:38:49;;;;;;;3.67;2.50;;;17.40;46.20;;;;;;4995809;28;20211;-25
2021/12/11 05:41:18;;;;;;;2.90;2.30;;;20.10;43.20;;;;;;4978406;28;20200;-23
2021/12/11 05:43:45;;;;;;;4.13;2.73;;;20.50;41.80;;;;;;4977899;28;20285;-27
2021/12/11 05:46:13;;;;;;;3.73;2.77;;;20.70;41.30;;;;;;4977740;28;20268;-25
2021/12/11 05:48:41;;;;;;;2.97;2.53;;;20.80;41.10;;;;;;4995921;28;20240;-24
2021/12/11 05:51:09;;;;;;;2.83;2.43;;;20.90;40.90;;;;;;4978619;28;20305;-26
2021/12/11 05:53:35;;;;;;;4.33;2.83;;;21.30;40.60;;;;;;4975174;28;20634;-28
2021/12/11 05:56:08;;;;;;;3.43;2.63;;;21.60;40.30;;;;;;4977726;28;20194;-24
2021/12/11 06:01:25;;;;;;;3.77;2.70;;;22.50;39.50;;;;;;4994921;28;20439;-24
2021/12/11 06:03:52;;;;;;;4.37;2.83;;;23.30;38.80;;;;;;4978216;28;20212;-27
2021/12/11 06:06:18;;;;;;;4.37;3.00;;;23.50;38.40;;;;;;4995303;28;20520;-24
2021/12/11 06:08:44;;;;;;;3.73;2.70;;;23.70;38.20;;;;;;4978223;28;20673;-26
2021/12/11 06:11:12;;;;;;;3.87;2.90;;;23.60;38.10;;;;;;4977837;28;20213;-25
2021/12/11 06:13:38;;;;;;;3.97;2.80;;;23.50;38.20;;;;;;4977690;28;20214;-24
2021/12/11 06:16:04;;;;;;;4.20;2.87;;;23.80;38.10;;;;;;4978299;28;20612;-24
2021/12/11 06:18:30;;;;;;;3.47;2.90;;;24.00;37.90;;;;;;4995767;28;20196;-24
2021/12/11 06:20:56;;;;;;;3.97;3.10;;;24.10;37.70;;;;;;4978113;28;20220;-25
2021/12/11 06:23:22;;;;;;;3.90;3.00;;;24.20;37.70;;;;;;4995702;28;20205;-28
2021/12/11 06:25:50;;;;;;;5.00;3.60;;;24.10;37.70;;;;;;4994769;28;20287;-25
2021/12/11 06:28:16;;;;;;;4.77;3.40;;;24.10;37.80;;;;;;4994478;28;20586;-25
2021/12/11 06:30:42;;;;;;;6.07;3.73;;;24.10;37.70;;;;;;4977055;28;20602;-26
2021/12/11 06:33:08;;;;;;;4.50;3.50;;;24.30;37.60;;;;;;4977678;28;20222;-25
2021/12/11 06:35:42;;;;;;;4.77;3.50;;;24.40;37.50;;;;;;4977724;28;20252;-22
2021/12/11 06:38:10;;;;;;;5.97;4.30;;;24.30;37.50;;;;;;4995804;28;20566;-25
2021/12/11 06:40:36;;;;;;;4.37;3.33;;;24.00;37.60;;;;;;4977616;28;20201;-24
2021/12/11 06:43:03;;;;;;;4.57;3.40;;;23.70;37.80;;;;;;4976578;28;20205;-27
2021/12/11 06:45:31;;;;;;;5.37;3.47;;;23.40;38.10;;;;;;4977036;28;20261;-25
2021/12/11 06:47:57;;;;;;;5.27;3.90;;;23.10;38.30;;;;;;4994378;28;20607;-26
2021/12/11 06:50:24;;;;;;;5.47;3.60;;;22.70;38.60;;;;;;4994325;28;20591;-27
2021/12/11 06:52:51;;;;;;;4.47;3.60;;;22.40;39.30;;;;;;4976239;28;20233;-23
2021/12/11 06:55:19;;;;;;;6.17;4.30;;;22.10;39.70;;;;;;4977334;28;20198;-28
2021/12/11 06:57:45;;;;;;;6.23;4.20;;;21.70;39.60;;;;;;4994247;28;20198;-25
2021/12/11 07:00:13;;;;;;;5.97;3.93;;;21.40;39.90;;;;;;4975732;28;20208;-25
2021/12/11 07:02:39;;;;;;;6.03;4.67;;;21.20;40.10;;;;;;4976589;28;20235;-24
2021/12/11 07:05:05;;;;;;;7.70;4.37;;;21.00;40.40;;;;;;4976935;28;20193;-25
2021/12/11 07:07:34;;;;;;;5.80;4.13;;;20.60;40.60;;;;;;4994584;28;20261;-26
2021/12/11 07:10:02;;;;;;;6.37;4.53;;;20.30;40.90;;;;;;4994895;28;20204;-25
2021/12/11 07:12:28;;;;;;;6.70;4.30;;;20.10;41.20;;;;;;4993329;28;20225;-24
2021/12/11 07:14:53;;;;;;;6.70;4.40;;;20.00;41.50;;;;;;4976753;28;20209;-25
2021/12/11 07:17:21;;;;;;;5.87;4.10;;;20.30;41.40;;;;;;4993922;28;20209;-24
2021/12/11 07:19:47;;;;;;;7.07;4.27;;;21.00;41.00;;;;;;4976212;28;20223;-25
2021/12/11 07:22:14;;;;;;;7.40;4.80;;;22.20;40.00;;;;;;4976034;28;20201;-23
2021/12/11 07:24:53;;;;;;;7.93;4.77;;;23.30;38.90;;;;;;4976467;28;20211;-25
2021/12/11 07:27:18;;;;;;;8.30;4.90;;;24.10;37.90;;;;;;4993557;28;20287;-24
2021/12/11 07:29:44;;;;;;;8.13;4.60;;;24.20;37.50;;;;;;4976721;28;20369;-24
2021/12/11 07:32:11;;;;;;;7.27;5.00;;;23.90;37.50;;;;;;4992654;28;20312;-25
2021/12/11 07:34:38;;;;;;;7.70;5.27;;;24.00;37.60;;;;;;4975178;28;20190;-25
2021/12/11 07:37:05;;;;;;;7.90;5.43;;;24.00;37.60;;;;;;4993031;28;20336;-25
2021/12/11 07:39:31;;;;;;;7.93;5.00;;;24.10;37.50;;;;;;4974299;28;20213;-25
2021/12/11 07:41:58;;;;;;;6.87;5.40;;;24.20;37.50;;;;;;4991145;28;20206;-26
2021/12/11 07:44:25;;;;;;;9.07;4.93;;;24.40;37.40;;;;;;4975242;28;20337;-25
2021/12/11 07:46:52;;;;;;;7.67;5.27;;;24.30;37.30;;;;;;4992786;28;20231;-27
2021/12/11 07:49:18;;;;;;;7.80;5.50;;;24.20;37.40;;;;;;4992418;28;20474;-26
2021/12/11 07:51:44;;;;;;;9.40;5.60;;;24.10;37.50;;;;;;4978022;28;20190;-24
2021/12/11 07:54:11;;;;;;;7.87;5.40;;;23.70;37.60;;;;;;4995937;28;20838;-23
2021/12/11 07:56:37;;;;;;;7.67;5.57;;;23.50;37.90;;;;;;4979515;28;20202;-24
2021/12/11 07:59:06;;;;;;;6.90;5.50;;;23.30;38.10;;;;;;4995290;28;20605;-24
2021/12/11 08:01:35;;;;;;;8.63;5.93;;;22.90;38.50;;;;;;4991459;28;20594;-24
2021/12/11 08:04:03;;;;;;;8.57;5.93;;;22.70;38.70;;;;;;4993469;28;20193;-23
2021/12/11 08:06:30;;;;;;;7.70;5.67;;;22.30;38.90;;;;;;4995797;28;20212;-24
2021/12/11 08:08:56;;;;;;;8.07;5.60;;;22.10;39.20;;;;;;4995610;28;20337;-24
2021/12/11 08:11:25;;;;;;;8.47;5.77;;;21.80;39.40;;;;;;4995791;28;20661;-23
2021/12/11 08:13:51;;;;;;;8.70;6.07;;;21.50;39.70;;;;;;4995263;28;20213;-24
2021/12/11 08:16:24;;;;;;;9.20;6.10;;;21.30;40.10;;;;;;4970524;28;20213;-26
2021/12/11 08:18:50;;;;;;;8.43;5.83;;;21.00;40.40;;;;;;4973674;28;20646;-27
2021/12/11 08:21:17;;;;;;;9.30;5.60;;;20.70;40.70;;;;;;4971112;28;20440;-24
2021/12/11 08:23:45;;;;;;;7.13;5.50;;;20.50;40.90;;;;;;4983769;28;20283;-24
2021/12/11 08:26:18;;;;;;;8.57;5.87;;;20.50;41.10;;;;;;4969145;28;20196;-25
2021/12/11 08:28:44;;;;;;;8.93;5.57;;;20.80;41.00;;;;;;4988742;28;20206;-23
2021/12/11 08:31:12;;;;;;;8.00;5.70;;;21.50;40.50;;;;;;4988878;28;20208;-27
2021/12/11 08:33:39;;;;;;;8.50;6.10;;;22.30;39.80;;;;;;4987319;28;20222;-25
2021/12/11 08:36:05;;;;;;;8.53;5.40;;;23.20;39.00;;;;;;4970872;28;20192;-27
2021/12/11 08:38:31;;;;;;;7.83;5.87;;;23.80;38.30;;;;;;4993731;28;20216;-26
2021/12/11 08:41:00;;;;;;;7.57;5.77;;;24.20;37.80;;;;;;4994531;28;20206;-25
2021/12/11 08:43:27;;;;;;;7.83;6.23;;;24.10;37.70;;;;;;4994302;28;20609;-24
2021/12/11 08:46:03;;;;;;;7.03;5.63;;;24.00;37.80;;;;;;4995158;28;20206;-25
2021/12/11 08:48:29;;;;;;;8.83;6.40;;;23.80;37.90;;;;;;4994945;28;20189;-25
2021/12/11 08:51:05;;;;;;;9.30;5.93;;;23.80;38.10;;;;;;4994438;28;20192;-25
2021/12/11 08:53:32;;;;;;;8.63;6.13;;;23.90;38.00;;;;;;4977201;28;20229;-23
2021/12/11 08:55:59;;;;;;;8.93;5.50;;;24.00;37.90;;;;;;4977381;28;20305;-23
2021/12/11 08:58:28;;;;;;;6.87;5.53;;;24.00;37.90;;;;;;4993668;28;20245;-24
2021/12/11 09:00:56;;;;;;;8.67;5.97;;;24.00;37.90;;;;;;4993601;28;20245;-26
2021/12/11 09:03:50;;;;;;;8.40;6.03;;;23.90;38.00;;;;;;4993377;28;20225;-25
2021/12/11 09:06:43;;;;;;;8.30;6.27;;;23.80;38.10;;;;;;4976718;28;20206;-25
2021/12/11 09:09:33;;;;;;;8.73;6.50;;;23.80;38.20;;;;;;4993383;28;20212;-24
2021/12/11 09:12:06;;;;;;;9.10;5.97;;;23.80;38.30;;;;;;4992272;28;20609;-28
2021/12/11 09:14:48;;;;;;;7.13;5.67;;;23.60;38.30;;;;;;4992996;28;20287;-22
2021/12/11 09:17:30;;;;;;;8.87;5.93;;;23.40;38.50;;;;;;4992711;28;20205;-20
2021/12/11 09:20:04;;;;;;;8.20;6.10;;;23.20;38.80;;;;;;4976472;28;20471;-23
2021/12/11 09:22:53;;;;;;;8.73;5.77;;;23.00;39.00;;;;;;4994286;28;20288;-20
2021/12/11 09:25:30;;;;;;;8.47;6.40;;;22.70;39.20;;;;;;4987335;28;20223;-22
2021/12/11 09:28:01;;;;;;;9.83;5.83;;;22.40;39.50;;;;;;4993572;28;20243;-22
2021/12/11 09:30:51;;;;;;;7.73;5.70;;;22.10;39.80;;;;;;4975293;28;20206;-21
2021/12/11 09:33:25;;;;;;;10.43;6.43;;;21.90;40.20;;;;;;4993538;28;20214;-23
2021/12/11 09:36:06;;;;;;;10.07;6.07;;;21.80;40.40;;;;;;4976605;28;20185;-20
2021/12/11 09:38:40;;;;;;;7.37;5.53;;;21.60;40.70;;;;;;4993788;28;20256;-25
2021/12/11 09:41:21;;;;;;;8.87;5.83;;;21.40;40.80;;;;;;4974796;28;20256;-23
2021/12/11 09:43:49;;;;;;;10.77;6.30;;;21.40;41.00;;;;;;4992140;28;20205;-23
2021/12/11 09:46:21;;;;;;;9.27;5.70;;;21.50;41.00;;;;;;4975491;28;20471;-22
2021/12/11 09:48:48;;;;;;;9.10;5.50;;;21.80;41.00;;;;;;4974257;28;20217;-23
2021/12/11 09:51:17;;;;;;;7.87;5.37;;;22.20;40.70;;;;;;4974920;28;20204;-22
2021/12/11 09:53:54;;;;;;;9.73;5.83;;;22.90;40.10;;;;;;4991783;28;20229;-22
2021/12/11 09:56:31;;;;;;;14.33;5.87;;;23.40;39.60;;;;;;4974595;28;20234;-23
2021/12/11 09:59:01;;;;;;;9.70;5.30;;;23.90;39.20;;;;;;4992688;28;20616;-21
2021/12/11 10:01:32;;;;;;;9.03;5.47;;;24.10;39.00;;;;;;4958515;28;20330;-25
2021/12/11 10:04:13;;;;;;;11.80;5.30;;;24.00;39.10;;;;;;4992884;28;20186;-22
2021/12/11 10:06:51;;;;;;;7.53;5.50;;;23.60;39.30;;;;;;4975063;28;20198;-24
2021/12/11 10:09:22;;;;;;;9.40;5.40;;;23.30;39.60;;;;;;4991177;28;20346;-25
2021/12/11 10:12:03;;;;;;;7.10;5.17;;;23.00;40.00;;;;;;4974801;28;20201;-26
2021/12/11 10:14:44;;;;;;;7.30;5.23;;;22.70;40.40;;;;;;4990613;28;20369;-26
2021/12/11 10:17:17;;;;;;;9.07;5.30;;;22.50;40.80;;;;;;4990451;28;20229;-24
2021/12/11 10:19:44;;;;;;;11.53;5.63;;;22.60;40.90;;;;;;4974736;28;20201;-26
2021/12/11 10:22:22;;;;;;;11.03;6.30;;;23.20;40.70;;;;;;4972786;28;20193;-25
2021/12/11 10:24:52;;;;;;;11.53;6.13;;;23.60;40.30;;;;;;4991185;28;20230;-23
2021/12/11 10:27:20;;;;;;;9.87;5.90;;;23.80;39.90;;;;;;4990637;28;20206;-25
2021/12/11 10:29:46;;;;;;;12.63;6.00;;;24.20;39.60;;;;;;4974232;28;20198;-24
2021/12/11 10:32:17;;;;;;;9.83;5.77;;;24.50;39.30;;;;;;4974708;28;20212;-24
2021/12/11 10:34:46;;;;;;;9.23;6.00;;;24.60;39.10;;;;;;4991672;28;20200;-26
2021/12/11 10:37:17;;;;;;;11.37;5.60;;;24.60;39.10;;;;;;4991279;28;20501;-25
2021/12/11 10:39:48;;;;;;;8.87;6.10;;;24.60;39.10;;;;;;4972015;28;20217;-24
2021/12/11 10:42:14;;;;;;;8.97;5.63;;;24.50;39.20;;;;;;4989754;28;20424;-21
2021/12/11 10:44:48;;;;;;;10.17;6.27;;;24.50;39.20;;;;;;4990965;28;20204;-27
2021/12/11 10:47:28;;;;;;;7.47;6.00;;;24.50;39.20;;;;;;4989779;28;20360;-23
2021/12/11 10:49:54;;;;;;;10.77;5.90;;;24.30;39.20;;;;;;4972160;28;20355;-25
2021/12/11 10:52:26;;;;;;;8.10;6.03;;;24.10;39.40;;;;;;4972399;28;20210;-24
2021/12/11 10:54:56;;;;;;;8.30;5.80;;;24.00;39.60;;;;;;4971584;28;20198;-25
2021/12/11 10:57:23;;;;;;;8.30;6.03;;;23.90;39.70;;;;;;4972854;28;20225;-23
2021/12/11 10:59:52;;;;;;;8.73;6.07;;;23.70;39.90;;;;;;4971656;28;20208;-23
2021/12/11 11:02:32;;;;;;;9.80;6.00;;;23.60;40.10;;;;;;4988441;28;20392;-22
2021/12/11 11:05:09;;;;;;;8.67;6.17;;;23.30;40.30;;;;;;4990674;28;20205;-25
2021/12/11 11:07:36;;;;;;;9.87;6.40;;;23.10;40.50;;;;;;4988836;28;20448;-23
2021/12/11 11:10:10;;;;;;;8.47;5.90;;;22.90;40.80;;;;;;4989596;28;20493;-28
2021/12/11 11:12:35;;;;;;;9.83;6.23;;;22.60;41.00;;;;;;4972185;28;20491;-25
2021/12/11 11:15:03;;;;;;;8.73;5.93;;;22.40;41.70;;;;;;4970767;28;20201;-24
2021/12/11 11:17:33;;;;;;;10.10;5.87;;;22.20;41.60;;;;;;4989921;28;20267;-26
2021/12/11 11:20:00;;;;;;;10.77;6.17;;;22.00;41.80;;;;;;4972082;28;20208;-23
2021/12/11 11:22:32;;;;;;;10.80;5.50;;;21.90;42.00;;;;;;4988065;28;20565;-26
2021/12/11 11:25:13;;;;;;;9.83;5.87;;;21.80;42.20;;;;;;4972527;28;20236;-25
2021/12/11 11:27:42;;;;;;;11.53;6.17;;;21.60;42.30;;;;;;4990072;28;20459;-25
2021/12/11 11:30:15;;;;;;;10.50;6.30;;;21.70;42.50;;;;;;4972640;28;20201;-27
2021/12/11 11:32:41;;;;;;;12.47;5.73;;;21.80;42.40;;;;;;4990611;28;20595;-27
2021/12/11 11:35:12;;;;;;;9.43;6.10;;;22.00;42.20;;;;;;4989072;28;20206;-22
2021/12/11 11:37:39;;;;;;;12.67;6.03;;;22.30;42.00;;;;;;4989632;28;20196;-25
2021/12/11 11:40:10;;;;;;;10.47;5.63;;;22.60;42.20;;;;;;4992601;28;20285;-24
2021/12/11 11:42:36;;;;;;;10.73;6.13;;;23.10;41.40;;;;;;4991783;28;20213;-25
2021/12/11 11:45:04;;;;;;;15.07;5.73;;;23.50;41.00;;;;;;4976982;28;20208;-24
2021/12/11 11:47:30;;;;;;;12.73;6.10;;;23.80;40.60;;;;;;4976532;28;20208;-24
2021/12/11 11:49:59;;;;;;;10.57;5.70;;;23.90;40.40;;;;;;4992950;28;20204;-25
2021/12/11 11:52:27;;;;;;;10.67;5.70;;;24.00;40.20;;;;;;4993682;28;20538;-25
2021/12/11 11:54:55;;;;;;;14.70;6.50;;;24.40;40.00;;;;;;4992116;28;20279;-23
2021/12/11 11:57:40;;;;;;;14.10;5.97;;;24.00;40.30;;;;;;4992889;28;20237;-24
2021/12/11 12:00:15;;;;;;;10.43;5.80;;;24.00;40.60;;;;;;4975641;28;20206;-25
2021/12/11 12:02:41;;;;;;;11.37;6.03;;;24.00;40.60;;;;;;4993204;28;20589;-24
2021/12/11 12:05:09;;;;;;;14.80;5.67;;;23.90;40.50;;;;;;4992681;28;20198;-25
2021/12/11 12:07:35;;;;;;;10.70;5.77;;;24.00;40.50;;;;;;4993711;28;20276;-23
2021/12/11 12:10:10;;;;;;;15.27;6.73;;;23.90;40.40;;;;;;4975653;28;20205;-23
2021/12/11 12:12:37;;;;;;;12.83;6.03;;;23.80;40.50;;;;;;4976416;28;20210;-23
2021/12/11 12:15:06;;;;;;;10.77;6.50;;;23.50;40.60;;;;;;4975644;28;20375;-23
2021/12/11 12:17:32;;;;;;;9.10;6.20;;;23.40;40.80;;;;;;4992750;28;20711;-25
2021/12/11 12:20:01;;;;;;;10.33;6.20;;;23.30;40.80;;;;;;4975697;28;20505;-25
2021/12/11 12:22:29;;;;;;;11.80;6.63;;;23.10;40.90;;;;;;4974394;28;20201;-25
2021/12/11 12:24:57;;;;;;;8.97;5.60;;;22.90;41.00;;;;;;4973169;28;20202;-26
2021/12/11 12:27:26;;;;;;;8.27;5.30;;;22.70;41.30;;;;;;4989951;28;20276;-25
2021/12/11 12:29:53;;;;;;;9.20;5.60;;;22.50;41.50;;;;;;4990555;28;20264;-23
2021/12/11 12:32:29;;;;;;;8.07;5.67;;;22.30;41.70;;;;;;4992005;28;20617;-23
2021/12/11 12:35:05;;;;;;;9.00;5.77;;;22.10;41.80;;;;;;4974069;28;20476;-25
2021/12/11 12:37:31;;;;;;;7.50;5.07;;;21.90;42.00;;;;;;4991357;28;20489;-24
2021/12/11 12:39:59;;;;;;;12.30;6.00;;;21.60;42.30;;;;;;4992300;28;20207;-25
2021/12/11 12:42:35;;;;;;;7.07;5.10;;;21.50;42.40;;;;;;4991208;28;20220;-25
2021/12/11 12:45:42;;;;;;;6.47;5.07;;;21.50;42.50;;;;;;4989736;28;20423;-25
2021/12/11 12:48:15;;;;;;;8.83;5.40;;;21.60;42.50;;;;;;4991552;28;20440;-23
2021/12/11 12:50:52;;;;;;;8.17;5.57;;;21.80;42.30;;;;;;4991465;28;20194;-25
2021/12/11 12:53:19;;;;;;;6.10;5.20;;;22.10;42.10;;;;;;4974571;28;20483;-24
2021/12/11 12:55:55;;;;;;;9.10;5.13;;;22.40;41.70;;;;;;4990600;28;20340;-25
2021/12/11 12:58:31;;;;;;;11.17;4.83;;;22.70;41.40;;;;;;4988929;28;20205;-25
2021/12/11 13:01:04;;;;;;;8.07;4.63;;;23.00;41.10;;;;;;4990772;28;20189;-25
2021/12/11 13:03:35;;;;;;;9.67;4.30;;;23.40;40.70;;;;;;4989717;28;20255;-25
2021/12/11 13:06:18;;;;;;;7.17;5.03;;;23.60;40.40;;;;;;4991042;28;20190;-24
2021/12/11 13:08:55;;;;;;;5.87;4.23;;;23.90;40.10;;;;;;4974271;28;20201;-22
2021/12/11 13:11:30;;;;;;;6.37;4.70;;;24.00;40.00;;;;;;4991422;28;20725;-25
2021/12/11 13:13:57;;;;;;;6.03;4.20;;;24.00;40.00;;;;;;4990749;28;20316;-24
2021/12/11 13:16:30;;;;;;;5.90;4.60;;;24.00;39.90;;;;;;4990127;28;20236;-24
2021/12/11 13:19:01;;;;;;;6.67;4.37;;;24.30;39.80;;;;;;4990872;28;20263;-25
2021/12/11 13:21:45;;;;;;;6.00;4.37;;;24.30;39.70;;;;;;4990823;28;20201;-20